createdAt,value
2023-05-25T04:00:43.812Z,99262.97
2023-05-25T04:04:57.062Z,99272.81
2023-05-25T04:09:10.260Z,99278.81
2023-05-25T04:13:21.829Z,99284.69
2023-05-25T04:17:33.409Z,99287.94
2023-05-25T04:21:45.185Z,99291.50
2023-05-25T04:25:57.569Z,99292.34
2023-05-25T04:30:11.099Z,99300.81
2023-05-25T04:34:38.820Z,99295.59
2023-05-25T04:39:04.816Z,99309.84
2023-05-25T04:43:20.486Z,99310.81
2023-05-25T04:47:32.445Z,99309.44
2023-05-25T04:51:45.467Z,99320.00
2023-05-25T04:55:57.663Z,99318.19
2023-05-25T05:00:11.038Z,99314.22
2023-05-25T05:04:23.985Z,99324.91
2023-05-25T05:08:35.813Z,99342.00
2023-05-25T05:12:47.585Z,99334.00
2023-05-25T05:17:00.127Z,99354.38
2023-05-25T05:21:12.246Z,99346.84
2023-05-25T05:25:24.353Z,99346.25
2023-05-25T05:29:37.475Z,99340.31
2023-05-25T05:33:49.592Z,99333.75
2023-05-25T05:38:02.170Z,99342.31
2023-05-25T05:42:13.797Z,99348.78
2023-05-25T05:46:25.570Z,99352.84
2023-05-25T05:50:40.325Z,99347.56
2023-05-25T05:54:54.291Z,99353.19
2023-05-25T05:59:05.987Z,99348.56
2023-05-25T06:03:17.597Z,99347.78
2023-05-25T06:07:30.809Z,99348.19
2023-05-25T06:11:42.464Z,99340.78
2023-05-25T06:15:55.173Z,99335.50
2023-05-25T06:20:10.189Z,99343.69
2023-05-25T06:24:22.026Z,99345.31
2023-05-25T06:28:34.408Z,99339.75
2023-05-25T06:32:46.311Z,99348.53
2023-05-25T06:36:58.037Z,99352.06
2023-05-25T06:41:12.714Z,99348.50
2023-05-25T06:45:24.501Z,99348.44
2023-05-25T06:49:36.138Z,99347.34
2023-05-25T06:53:47.749Z,99352.09
2023-05-25T06:57:59.595Z,99361.78
2023-05-25T07:02:11.283Z,99359.78
2023-05-25T07:06:22.848Z,99354.25
2023-05-25T07:10:34.543Z,99345.00
2023-05-25T07:14:48.288Z,99348.47
2023-05-25T07:19:00.516Z,99355.81
2023-05-25T07:23:12.530Z,99346.81
2023-05-25T07:27:25.457Z,99340.22
2023-05-25T07:31:37.049Z,99344.19
2023-05-25T07:35:48.636Z,99347.78
2023-05-25T07:40:00.300Z,99335.88
2023-05-25T07:44:11.854Z,99343.81
2023-05-25T07:48:23.685Z,99337.31
2023-05-25T07:52:35.258Z,99341.56
2023-05-25T07:56:46.786Z,99341.50
2023-05-25T08:00:58.322Z,99349.34
2023-05-25T08:05:10.209Z,99351.50
2023-05-25T08:09:21.870Z,99353.59
2023-05-25T08:13:33.419Z,99372.06
2023-05-25T08:17:45.155Z,99377.31
2023-05-25T08:21:56.962Z,99370.44
2023-05-25T08:26:31.273Z,99368.09
2023-05-25T08:30:45.530Z,99375.13
2023-05-25T08:34:57.179Z,99372.19
2023-05-25T08:39:09.250Z,99367.31
2023-05-25T08:43:20.854Z,99366.53
2023-05-25T08:47:34.800Z,99384.78
2023-05-25T08:51:51.753Z,99389.88
2023-05-25T08:56:13.599Z,99384.41
2023-05-25T09:00:36.465Z,99377.31
2023-05-25T09:04:48.337Z,99367.78
2023-05-25T09:08:59.953Z,99361.88
2023-05-25T09:13:21.351Z,99380.09
2023-05-25T09:17:37.352Z,99383.88
2023-05-25T09:21:52.935Z,99379.69
2023-05-25T09:26:08.917Z,99385.44
2023-05-25T09:30:20.497Z,99382.81
2023-05-25T09:34:35.217Z,99378.00
2023-05-25T09:38:47.709Z,99384.94
2023-05-25T09:42:59.556Z,99392.41
2023-05-25T09:47:13.298Z,99385.78
2023-05-25T09:51:26.137Z,99398.84
2023-05-25T09:55:55.491Z,99388.63
2023-05-25T10:00:08.686Z,99390.25
2023-05-25T10:04:23.170Z,99385.59
2023-05-25T10:08:34.880Z,99388.66
2023-05-25T10:12:53.016Z,99378.16
2023-05-25T10:17:07.363Z,99382.72
2023-05-25T10:21:22.794Z,99375.03
2023-05-25T10:25:44.872Z,99382.41
2023-05-25T10:30:18.495Z,99373.06
2023-05-25T10:34:33.005Z,99384.88
2023-05-25T10:38:45.177Z,99385.94
2023-05-25T10:42:56.767Z,99385.19
2023-05-25T10:47:09.297Z,99380.13
2023-05-25T10:51:21.799Z,99378.91
2023-05-25T10:55:51.897Z,99369.94
2023-05-25T11:00:08.697Z,99383.97
2023-05-25T11:04:20.311Z,99375.81
2023-05-25T11:08:59.358Z,99377.88
2023-05-25T11:13:31.391Z,99376.41
2023-05-25T11:18:01.146Z,99369.94
2023-05-25T11:22:37.441Z,99388.66
2023-05-25T11:26:57.540Z,99372.75
2023-05-25T11:31:09.628Z,99355.47
2023-05-25T11:35:21.871Z,99356.84
2023-05-25T11:39:33.472Z,99367.38
2023-05-25T11:43:46.308Z,99364.94
2023-05-25T11:47:57.943Z,99331.56
2023-05-25T11:52:10.594Z,99357.59
2023-05-25T11:56:34.211Z,99360.44
2023-05-25T12:00:46.959Z,99351.69
2023-05-25T12:05:02.239Z,99350.16
2023-05-25T12:09:13.983Z,99346.97
2023-05-25T12:13:26.309Z,99341.72
2023-05-25T12:17:41.323Z,99329.22
2023-05-25T12:21:53.149Z,99324.28
2023-05-25T12:26:13.744Z,99337.72
2023-05-25T12:30:28.392Z,99345.00
2023-05-25T12:34:39.990Z,99324.38
2023-05-25T12:39:01.175Z,99345.44
2023-05-25T12:43:14.174Z,99324.44
2023-05-25T12:47:28.645Z,99332.44
2023-05-25T12:51:40.894Z,99328.34
2023-05-25T12:56:01.676Z,99334.16
2023-05-25T13:00:14.060Z,99324.53
2023-05-25T13:04:26.786Z,99325.19
2023-05-25T13:08:39.077Z,99330.38
2023-05-25T13:12:52.312Z,99329.00
2023-05-25T13:17:04.314Z,99325.50
2023-05-25T13:21:15.925Z,99320.25
2023-05-25T13:25:28.253Z,99320.44
2023-05-25T13:29:40.034Z,99319.06
2023-05-25T13:33:51.694Z,99315.19
2023-05-25T13:38:03.593Z,99317.47
2023-05-25T13:42:15.478Z,99317.63
2023-05-25T13:50:45.794Z,99313.81
2023-05-25T13:54:57.857Z,99317.34
2023-05-25T13:59:09.800Z,99307.91
2023-05-25T14:03:21.982Z,99312.84
2023-05-25T14:07:34.014Z,99314.97
2023-05-25T14:11:45.586Z,99304.91
2023-05-25T14:15:57.269Z,99312.84
2023-05-25T14:20:09.577Z,99311.72
2023-05-25T14:24:21.198Z,99310.28
2023-05-25T14:28:32.768Z,99304.88
2023-05-25T14:32:44.431Z,99307.13
2023-05-25T14:36:56.169Z,99306.31
2023-05-25T14:41:07.730Z,99303.91
2023-05-25T14:45:19.415Z,99295.78
2023-05-25T14:49:30.938Z,99306.06
2023-05-25T14:53:42.483Z,99304.38
2023-05-25T14:57:54.054Z,99302.63
2023-05-25T15:02:05.714Z,99294.91
2023-05-25T15:06:17.290Z,99285.81
2023-05-25T15:10:29.642Z,99300.22
2023-05-25T15:14:42.314Z,99301.50
2023-05-25T15:18:54.197Z,99302.69
2023-05-25T15:23:05.761Z,99292.06
2023-05-25T15:27:17.431Z,99301.22
2023-05-25T15:31:29.022Z,99300.41
2023-05-25T15:35:40.801Z,99298.22
2023-05-25T15:39:52.427Z,99288.78
2023-05-25T15:44:08.136Z,99301.41
2023-05-25T15:48:19.759Z,99294.53
2023-05-25T15:52:31.297Z,99293.47
2023-05-25T15:56:42.899Z,99294.03
2023-05-25T16:00:54.440Z,99283.19
2023-05-25T16:05:07.150Z,99284.38
2023-05-25T16:09:18.708Z,99289.38
2023-05-25T16:13:30.429Z,99288.78
2023-05-25T16:17:41.975Z,99286.19
2023-05-25T16:21:53.523Z,99283.47
2023-05-25T16:26:05.956Z,99290.84
2023-05-25T16:30:17.498Z,99294.53
2023-05-25T16:34:29.052Z,99289.69
2023-05-25T16:38:41.381Z,99274.75
2023-05-25T16:42:52.921Z,99280.75
2023-05-25T16:47:04.660Z,99294.94
2023-05-25T16:51:16.358Z,99299.50
2023-05-25T16:55:28.006Z,99287.25
2023-05-25T16:59:39.812Z,99290.19
2023-05-25T17:03:51.538Z,99284.13
2023-05-25T17:08:03.198Z,99291.63
2023-05-25T17:12:14.732Z,99286.78
2023-05-25T17:16:26.403Z,99281.00
2023-05-25T17:20:38.189Z,99280.75
2023-05-25T17:24:49.962Z,99280.28
2023-05-25T17:29:01.561Z,99283.03
2023-05-25T17:33:13.187Z,99286.94
2023-05-25T17:37:24.755Z,99284.28
2023-05-25T17:41:36.326Z,99289.75
2023-05-25T17:45:48.146Z,99288.41
2023-05-25T17:49:59.806Z,99299.63
2023-05-25T17:54:15.347Z,99292.47
2023-05-25T17:58:27.925Z,99291.41
2023-05-25T18:02:39.638Z,99297.88
2023-05-25T18:06:52.227Z,99299.84
2023-05-25T18:11:03.798Z,99293.38
2023-05-25T18:15:15.377Z,99290.13
2023-05-25T18:19:26.930Z,99294.50
2023-05-25T18:23:38.498Z,99297.28
2023-05-25T18:27:50.049Z,99297.38
2023-05-25T18:32:01.580Z,99307.81
2023-05-25T18:36:13.141Z,99301.69
2023-05-25T18:40:24.681Z,99299.75
2023-05-25T18:44:36.533Z,99298.81
2023-05-25T18:48:48.197Z,99304.38
2023-05-25T18:52:59.936Z,99314.59
2023-05-25T18:57:12.010Z,99318.97
2023-05-25T19:01:25.319Z,99318.41
2023-05-25T19:05:36.954Z,99324.09
2023-05-25T19:09:48.662Z,99330.44
2023-05-25T19:14:00.221Z,99328.03
2023-05-25T19:18:11.847Z,99339.84
2023-05-25T19:22:23.437Z,99350.44
2023-05-25T19:26:36.680Z,99345.94
2023-05-25T19:30:48.351Z,99345.13
2023-05-25T19:34:59.915Z,99346.47
2023-05-25T19:39:11.450Z,99355.31
2023-05-25T19:43:23.076Z,99358.66
2023-05-25T19:47:34.935Z,99363.09
2023-05-25T19:51:46.560Z,99360.88
2023-05-25T19:55:58.314Z,99367.03
2023-05-25T20:00:17.565Z,99377.00
2023-05-25T20:04:41.051Z,99381.81
2023-05-25T20:08:52.888Z,99377.41
2023-05-25T20:13:08.561Z,99394.72
2023-05-25T20:17:20.142Z,99395.22
2023-05-25T20:21:31.706Z,99400.09
2023-05-25T20:25:43.468Z,99396.53
2023-05-25T20:29:55.377Z,99397.41
2023-05-25T20:34:07.213Z,99400.91
2023-05-25T20:38:18.786Z,99406.38
2023-05-25T20:42:30.417Z,99409.94
2023-05-25T20:46:42.298Z,99409.75
2023-05-25T20:50:54.058Z,99417.28
2023-05-25T20:55:05.923Z,99426.47
2023-05-25T20:59:17.642Z,99422.66
2023-05-25T21:03:29.251Z,99424.59
2023-05-25T21:07:41.389Z,99432.13
2023-05-25T21:11:52.935Z,99431.59
2023-05-25T21:16:04.599Z,99441.38
2023-05-25T21:20:16.341Z,99441.56
2023-05-25T21:24:27.954Z,99450.84
2023-05-25T21:28:39.530Z,99446.72
